createdAt,value
2019-01-27T00:00:35.142Z,6.13
2019-01-27T00:02:36.070Z,6.63
2019-01-27T00:04:37.194Z,10.17
2019-01-27T00:06:38.223Z,11.40
2019-01-27T00:08:39.123Z,6.05
2019-01-27T00:10:39.999Z,6.07
2019-01-27T00:12:40.859Z,5.27
2019-01-27T00:14:41.955Z,6.10
2019-01-27T00:16:42.788Z,7.60
2019-01-27T00:18:43.733Z,6.03
2019-01-27T00:20:44.644Z,6.03
2019-01-27T00:22:45.502Z,7.67
2019-01-27T00:24:46.773Z,7.43
2019-01-27T00:26:47.697Z,6.20
2019-01-27T00:28:48.864Z,7.97
2019-01-27T00:30:49.842Z,7.50
2019-01-27T00:32:51.031Z,8.90
2019-01-27T00:37:06.823Z,8.80
2019-01-27T00:39:07.722Z,8.23
2019-01-27T00:41:08.700Z,8.50
2019-01-27T00:43:09.620Z,8.07
2019-01-27T00:45:10.649Z,9.23
2019-01-27T00:47:11.602Z,9.30
2019-01-27T00:49:12.598Z,9.83
2019-01-27T00:51:13.672Z,11.07
2019-01-27T00:53:14.587Z,11.23
2019-01-27T00:55:15.828Z,9.07
2019-01-27T00:57:16.783Z,11.33
2019-01-27T00:59:17.700Z,11.13
2019-01-27T01:01:18.576Z,9.47
2019-01-27T01:03:19.492Z,9.47
2019-01-27T01:05:20.332Z,10.50
2019-01-27T01:07:21.254Z,10.23
2019-01-27T01:09:22.173Z,10.53
2019-01-27T01:11:23.356Z,10.23
2019-01-27T01:13:24.284Z,10.00
2019-01-27T01:15:25.195Z,9.47
2019-01-27T01:17:26.245Z,7.90
2019-01-27T01:19:27.460Z,8.10
2019-01-27T01:21:28.409Z,8.13
2019-01-27T01:23:29.337Z,10.03
2019-01-27T01:25:30.289Z,9.43
2019-01-27T01:27:31.199Z,8.33
2019-01-27T01:29:32.262Z,7.77
2019-01-27T01:31:33.189Z,7.53
2019-01-27T01:33:34.362Z,7.90
2019-01-27T01:35:35.281Z,8.70
2019-01-27T01:37:36.294Z,11.50
2019-01-27T01:39:37.221Z,11.00
2019-01-27T01:41:38.173Z,8.87
2019-01-27T01:43:39.112Z,8.80
2019-01-27T01:45:40.156Z,8.50
2019-01-27T01:47:41.381Z,9.33
2019-01-27T01:49:42.599Z,9.40
2019-01-27T01:51:43.805Z,8.27
2019-01-27T01:53:45.023Z,8.77
2019-01-27T01:55:45.950Z,7.77
2019-01-27T01:57:47.296Z,9.53
2019-01-27T01:59:48.247Z,8.57
2019-01-27T02:01:49.466Z,7.83
2019-01-27T02:03:50.409Z,8.33
2019-01-27T02:05:51.448Z,8.00
2019-01-27T02:07:52.673Z,8.73
2019-01-27T02:09:53.634Z,8.37
2019-01-27T02:11:54.962Z,8.07
2019-01-27T02:13:55.922Z,7.30
2019-01-27T02:15:56.833Z,8.00
2019-01-27T02:17:58.076Z,9.30
2019-01-27T02:19:59.318Z,7.27
2019-01-27T02:22:00.502Z,7.50
2019-01-27T02:24:01.458Z,7.70
2019-01-27T02:26:02.348Z,8.10
2019-01-27T02:28:03.265Z,7.37
2019-01-27T02:30:04.201Z,7.10
2019-01-27T02:32:05.139Z,8.50
2019-01-27T02:34:06.097Z,7.87
2019-01-27T02:36:07.037Z,7.47
2019-01-27T02:38:08.230Z,8.03
2019-01-27T02:40:09.159Z,9.10
2019-01-27T02:42:09.992Z,8.47
2019-01-27T02:44:10.830Z,7.60
2019-01-27T02:46:11.931Z,9.20
2019-01-27T02:48:12.806Z,8.67
2019-01-27T02:50:13.640Z,9.13
2019-01-27T02:52:14.748Z,10.40
2019-01-27T02:54:15.578Z,11.13
2019-01-27T02:56:16.408Z,9.30
2019-01-27T02:58:17.262Z,10.07
2019-01-27T03:00:18.354Z,9.07
2019-01-27T03:02:19.283Z,11.17
2019-01-27T03:04:20.133Z,12.97
2019-01-27T03:06:49.959Z,11.07
2019-01-27T03:09:11.929Z,12.77
2019-01-27T03:11:12.760Z,11.70
2019-01-27T03:13:13.597Z,9.63
2019-01-27T03:15:16.352Z,8.83
2019-01-27T03:17:18.696Z,9.67
2019-01-27T03:19:19.556Z,9.77
2019-01-27T03:21:20.385Z,10.70
2019-01-27T03:23:21.413Z,10.77
2019-01-27T03:25:22.244Z,9.87
2019-01-27T03:27:23.321Z,9.60
2019-01-27T03:29:24.175Z,9.67
2019-01-27T03:31:25.001Z,9.30
2019-01-27T03:33:25.837Z,11.10
2019-01-27T03:35:26.684Z,11.17
2019-01-27T03:37:27.522Z,10.03
2019-01-27T03:39:28.344Z,10.23
2019-01-27T03:41:29.193Z,10.43
2019-01-27T03:43:30.293Z,9.37
2019-01-27T03:45:31.141Z,9.97
2019-01-27T03:47:32.248Z,10.57
2019-01-27T03:49:33.092Z,11.67
2019-01-27T03:51:34.193Z,11.10
2019-01-27T03:53:35.021Z,11.00
2019-01-27T03:55:35.872Z,10.27
2019-01-27T03:57:36.738Z,11.77
2019-01-27T03:59:37.574Z,10.87
2019-01-27T04:01:38.400Z,10.57
2019-01-27T04:03:39.242Z,11.70
2019-01-27T04:05:40.072Z,9.63
2019-01-27T04:07:40.916Z,12.43
2019-01-27T04:09:42.050Z,11.07
2019-01-27T04:11:42.888Z,10.63
2019-01-27T04:13:43.740Z,11.77
2019-01-27T04:15:44.776Z,10.87
2019-01-27T04:17:45.614Z,11.27
2019-01-27T04:19:46.716Z,11.77
2019-01-27T04:21:47.573Z,11.10
2019-01-27T04:23:48.509Z,11.57
2019-01-27T04:25:49.340Z,10.33
2019-01-27T04:27:50.177Z,10.83
2019-01-27T04:29:51.011Z,11.53
2019-01-27T04:31:51.832Z,11.00
2019-01-27T04:33:52.680Z,9.33
2019-01-27T04:35:53.511Z,11.93
2019-01-27T04:37:54.368Z,11.40
2019-01-27T04:39:55.455Z,9.97
2019-01-27T04:41:56.552Z,10.00
2019-01-27T04:43:57.384Z,10.37
2019-01-27T04:45:58.206Z,11.80
2019-01-27T04:47:59.048Z,12.60
2019-01-27T04:49:59.920Z,11.30
2019-01-27T04:52:01.019Z,12.30
2019-01-27T04:54:01.873Z,11.17
2019-01-27T04:56:02.704Z,11.13
2019-01-27T04:58:03.533Z,12.70
2019-01-27T05:00:04.381Z,10.90
2019-01-27T05:02:05.532Z,11.10
2019-01-27T05:04:16.479Z,9.93
2019-01-27T05:06:17.423Z,10.93
2019-01-27T05:08:18.290Z,10.80
2019-01-27T05:10:19.394Z,10.63
2019-01-27T05:12:20.239Z,9.03
2019-01-27T05:14:21.080Z,10.73
2019-01-27T05:16:21.928Z,9.60
2019-01-27T05:18:22.774Z,9.33
2019-01-27T05:20:23.620Z,8.00
2019-01-27T05:22:24.709Z,8.70
2019-01-27T05:24:25.545Z,8.23
2019-01-27T05:26:26.388Z,9.03
2019-01-27T05:28:27.511Z,8.63
2019-01-27T05:30:28.684Z,7.23
2019-01-27T05:32:29.773Z,9.37
2019-01-27T05:34:30.612Z,9.13
2019-01-27T05:36:31.449Z,9.23
2019-01-27T05:38:32.541Z,9.60
2019-01-27T05:40:33.412Z,9.07
2019-01-27T05:42:34.253Z,11.17
2019-01-27T05:44:35.080Z,11.03
2019-01-27T05:46:35.925Z,10.37
2019-01-27T05:48:37.029Z,10.90
2019-01-27T05:50:37.885Z,10.23
2019-01-27T05:52:38.957Z,10.30
2019-01-27T05:54:39.792Z,9.77
2019-01-27T05:56:40.649Z,9.73
2019-01-27T05:58:41.728Z,10.97
2019-01-27T06:00:44.304Z,10.97
2019-01-27T06:02:45.149Z,11.30
2019-01-27T06:04:45.982Z,12.80
2019-01-27T06:06:46.823Z,11.60
2019-01-27T06:08:47.926Z,12.77
2019-01-27T06:10:48.748Z,11.77
2019-01-27T06:12:49.844Z,9.67
2019-01-27T06:14:50.725Z,12.83
2019-01-27T06:16:51.817Z,10.43
2019-01-27T06:18:52.681Z,9.50
2019-01-27T06:20:53.501Z,10.13
2019-01-27T06:22:54.365Z,11.63
2019-01-27T06:24:55.196Z,10.53
2019-01-27T06:26:56.033Z,13.50
2019-01-27T06:28:56.874Z,11.37
2019-01-27T06:30:57.704Z,10.67
2019-01-27T06:33:16.900Z,11.03
2019-01-27T06:35:17.768Z,12.43
2019-01-27T06:37:24.713Z,12.90
2019-01-27T06:39:21.339Z,12.30
2019-01-27T06:41:22.182Z,11.17
2019-01-27T06:43:23.000Z,12.30
2019-01-27T06:45:23.836Z,9.70
2019-01-27T06:47:24.923Z,11.80
2019-01-27T06:49:26.012Z,11.57
2019-01-27T06:51:26.854Z,13.07
2019-01-27T06:53:27.704Z,12.60
2019-01-27T06:55:28.792Z,14.40
2019-01-27T06:57:29.640Z,12.57
2019-01-27T06:59:44.740Z,12.37
2019-01-27T07:02:07.992Z,14.00
2019-01-27T07:04:37.561Z,12.20
2019-01-27T07:06:58.048Z,13.13
2019-01-27T07:09:10.059Z,13.37
2019-01-27T07:11:49.160Z,14.20
2019-01-27T07:14:16.596Z,12.80
2019-01-27T07:16:35.965Z,11.83
2019-01-27T07:18:48.120Z,10.53
2019-01-27T07:21:08.604Z,10.47
2019-01-27T07:23:38.422Z,12.60
2019-01-27T07:25:55.546Z,13.17
2019-01-27T07:28:34.247Z,12.17
2019-01-27T07:31:03.672Z,11.07
2019-01-27T07:33:23.460Z,12.60
2019-01-27T07:35:50.273Z,12.63
2019-01-27T07:37:55.832Z,11.70
2019-01-27T07:40:17.425Z,11.93
2019-01-27T07:42:34.117Z,13.17
2019-01-27T07:44:43.014Z,13.60
2019-01-27T07:47:01.336Z,11.47
2019-01-27T07:49:21.960Z,11.77
2019-01-27T07:51:35.451Z,10.73
2019-01-27T07:53:54.824Z,11.90
2019-01-27T07:56:24.664Z,11.13
2019-01-27T07:58:46.256Z,17.03
2019-01-27T08:01:05.765Z,15.13
2019-01-27T08:03:29.320Z,12.63
2019-01-27T08:05:37.264Z,14.27
2019-01-27T08:07:56.628Z,13.07
2019-01-27T08:10:11.032Z,14.80
2019-01-27T08:12:34.561Z,12.53
2019-01-27T08:14:58.067Z,17.10
2019-01-27T08:17:30.612Z,16.67
2019-01-27T08:19:49.847Z,15.73
2019-01-27T08:22:16.397Z,14.63
2019-01-27T08:24:23.837Z,13.83
2019-01-27T08:26:41.899Z,14.03
2019-01-27T08:29:11.722Z,15.17
2019-01-27T08:31:35.069Z,15.83
2019-01-27T08:33:45.968Z,17.07
2019-01-27T08:36:06.543Z,14.97
2019-01-27T08:38:16.086Z,15.37
2019-01-27T08:40:35.643Z,14.90
2019-01-27T08:42:55.350Z,15.20
2019-01-27T08:45:05.312Z,11.67
2019-01-27T08:47:06.150Z,11.23
2019-01-27T08:49:06.972Z,10.83
2019-01-27T08:51:07.836Z,7.60
2019-01-27T08:53:08.917Z,8.90
2019-01-27T08:55:10.056Z,9.37
2019-01-27T08:57:10.884Z,9.33
2019-01-27T08:59:11.992Z,10.53
2019-01-27T09:01:32.113Z,8.13
2019-01-27T09:03:48.463Z,6.87
2019-01-27T09:05:57.796Z,6.00
2019-01-27T09:08:21.088Z,6.53
2019-01-27T09:10:28.946Z,5.13
2019-01-27T09:12:57.205Z,5.47
2019-01-27T09:15:13.488Z,5.43
2019-01-27T09:17:28.032Z,8.03
2019-01-27T09:19:44.402Z,7.00
2019-01-27T09:22:05.057Z,5.07
2019-01-27T09:24:17.020Z,5.77
2019-01-27T09:26:23.056Z,6.23
2019-01-27T09:28:38.664Z,3.40
2019-01-27T09:31:02.199Z,3.70
2019-01-27T09:33:22.688Z,3.67
2019-01-27T09:35:31.344Z,4.13
2019-01-27T09:37:47.160Z,4.27
2019-01-27T09:39:58.840Z,3.27
2019-01-27T09:42:25.333Z,3.80
2019-01-27T09:44:35.153Z,3.07
2019-01-27T09:47:08.018Z,3.20
2019-01-27T09:49:28.517Z,3.53
2019-01-27T09:51:36.680Z,2.97
2019-01-27T09:53:53.844Z,3.20
2019-01-27T09:56:17.082Z,4.17
2019-01-27T09:58:40.337Z,3.93
2019-01-27T10:00:49.294Z,3.47
2019-01-27T10:03:11.060Z,3.20
2019-01-27T10:05:31.575Z,3.20
2019-01-27T10:07:55.079Z,3.27
2019-01-27T10:10:14.232Z,3.43
2019-01-27T10:12:31.113Z,4.53
2019-01-27T10:14:47.704Z,3.27
2019-01-27T10:16:56.392Z,5.27
2019-01-27T10:19:19.908Z,3.37
2019-01-27T10:21:40.384Z,3.93
2019-01-27T10:24:06.708Z,3.90
2019-01-27T10:26:29.964Z,3.80
2019-01-27T10:28:38.711Z,14.47
2019-01-27T10:30:58.008Z,4.13
2019-01-27T10:33:06.776Z,5.37
2019-01-27T10:35:33.461Z,4.17
2019-01-27T10:38:06.064Z,4.97
2019-01-27T10:40:18.749Z,4.27
2019-01-27T10:42:51.544Z,3.10
2019-01-27T10:45:21.032Z,3.17
2019-01-27T10:47:59.860Z,3.27
2019-01-27T10:50:26.184Z,3.77
2019-01-27T10:52:31.960Z,2.70
2019-01-27T10:54:47.879Z,2.90
2019-01-27T10:57:00.617Z,3.00
2019-01-27T10:59:24.264Z,2.87
2019-01-27T11:02:03.037Z,2.90
2019-01-27T11:04:22.456Z,3.00
2019-01-27T11:06:48.830Z,2.60
2019-01-27T11:09:07.292Z,2.93
2019-01-27T11:11:32.624Z,3.00
2019-01-27T11:13:53.172Z,3.00
2019-01-27T11:16:19.614Z,2.53
2019-01-27T11:18:26.821Z,2.80
2019-01-27T11:20:40.093Z,2.40
2019-01-27T11:22:59.548Z,2.60
2019-01-27T11:25:20.360Z,2.97
2019-01-27T11:27:33.109Z,3.10
2019-01-27T11:29:51.876Z,2.93
2019-01-27T11:32:18.702Z,3.53
2019-01-27T11:34:54.366Z,2.60
2019-01-27T11:37:09.977Z,2.33
2019-01-27T11:39:28.530Z,2.60
2019-01-27T11:41:40.916Z,2.70
2019-01-27T11:44:07.364Z,3.07
2019-01-27T11:46:30.686Z,2.43
2019-01-27T11:48:46.922Z,2.43
2019-01-27T11:50:54.576Z,2.40
2019-01-27T11:52:58.288Z,2.70
2019-01-27T11:54:59.198Z,2.60
2019-01-27T11:57:00.092Z,3.23
2019-01-27T11:59:01.017Z,2.20
2019-01-27T12:01:04.174Z,2.20
2019-01-27T12:03:05.100Z,3.03
2019-01-27T12:05:06.251Z,2.37
2019-01-27T12:07:07.284Z,2.80
2019-01-27T12:09:08.195Z,2.50
2019-01-27T12:11:09.077Z,2.50
2019-01-27T12:13:09.996Z,2.40
2019-01-27T12:15:11.116Z,2.50
2019-01-27T12:17:11.976Z,2.50
2019-01-27T12:19:13.080Z,2.97
2019-01-27T12:21:13.940Z,2.40
2019-01-27T12:23:14.786Z,2.57
2019-01-27T12:25:15.912Z,2.50
2019-01-27T12:27:16.785Z,2.30
2019-01-27T12:29:17.612Z,2.47
2019-01-27T12:31:18.472Z,2.30
2019-01-27T12:33:19.321Z,2.27
2019-01-27T12:35:20.180Z,2.53
2019-01-27T12:37:21.416Z,2.40
2019-01-27T12:39:22.499Z,2.77
2019-01-27T12:41:23.353Z,3.13
2019-01-27T12:43:24.190Z,3.13
2019-01-27T12:45:25.056Z,2.70
2019-01-27T12:47:26.125Z,3.77
2019-01-27T12:49:26.969Z,3.57
2019-01-27T12:51:27.813Z,3.03
2019-01-27T12:53:28.665Z,2.50
2019-01-27T12:55:29.528Z,2.50
2019-01-27T12:57:30.352Z,2.70
2019-01-27T12:59:31.205Z,2.70
2019-01-27T13:01:32.068Z,2.80
2019-01-27T13:03:32.898Z,2.77
2019-01-27T13:05:34.076Z,2.40
2019-01-27T13:07:35.044Z,3.00
2019-01-27T13:09:35.893Z,3.80
2019-01-27T13:11:36.724Z,2.83
2019-01-27T13:13:37.837Z,2.60
2019-01-27T13:15:38.777Z,3.33
2019-01-27T13:17:39.733Z,2.83
2019-01-27T13:19:40.693Z,2.60
2019-01-27T13:21:41.860Z,3.27
2019-01-27T13:23:42.724Z,3.33
2019-01-27T13:25:43.560Z,3.53
2019-01-27T13:27:44.500Z,3.07
2019-01-27T13:29:45.456Z,6.63
2019-01-27T13:31:46.390Z,5.60
2019-01-27T13:33:47.606Z,4.50
2019-01-27T13:35:48.456Z,3.40
2019-01-27T13:37:49.296Z,2.60
2019-01-27T13:39:50.404Z,2.80
2019-01-27T13:41:51.268Z,3.13
2019-01-27T13:43:52.356Z,2.70
2019-01-27T13:45:53.201Z,2.60
2019-01-27T13:47:58.944Z,2.73
2019-01-27T13:49:56.797Z,3.10
2019-01-27T13:51:57.624Z,2.53
2019-01-27T13:53:58.487Z,2.40
2019-01-27T13:55:59.388Z,2.53
2019-01-27T13:58:00.253Z,2.60
2019-01-27T14:00:01.084Z,2.50
2019-01-27T14:02:01.909Z,2.50
2019-01-27T14:04:02.768Z,2.37
2019-01-27T14:06:03.880Z,2.20
2019-01-27T14:08:04.708Z,3.60
2019-01-27T14:10:06.002Z,2.73
2019-01-27T14:12:06.839Z,3.53
2019-01-27T14:14:07.676Z,2.23
2019-01-27T14:16:08.524Z,2.13
2019-01-27T14:18:09.940Z,1.97
2019-01-27T14:20:11.040Z,5.47
2019-01-27T14:22:11.881Z,1.80
2019-01-27T14:24:12.733Z,3.47
2019-01-27T14:26:13.572Z,1.70
2019-01-27T14:28:14.412Z,1.70
2019-01-27T14:30:15.256Z,1.93
2019-01-27T14:32:16.088Z,1.63
2019-01-27T14:34:17.040Z,1.60
2019-01-27T14:36:17.876Z,2.67
2019-01-27T14:38:18.707Z,1.97
2019-01-27T14:40:19.919Z,1.60
2019-01-27T14:42:21.020Z,1.53
2019-01-27T14:44:22.221Z,2.83
2019-01-27T14:46:23.072Z,1.70
2019-01-27T14:48:23.909Z,1.70
2019-01-27T14:50:24.765Z,2.33
2019-01-27T14:52:25.623Z,1.93
2019-01-27T14:54:26.573Z,2.77
2019-01-27T14:56:27.408Z,1.53
2019-01-27T14:58:28.264Z,2.10
2019-01-27T15:00:29.439Z,2.40
2019-01-27T15:02:30.284Z,1.90
2019-01-27T15:04:31.137Z,2.83
2019-01-27T15:06:31.971Z,4.60
2019-01-27T15:08:32.829Z,1.80
2019-01-27T15:10:33.664Z,2.27
2019-01-27T15:12:34.515Z,4.30
2019-01-27T15:14:35.368Z,1.67
2019-01-27T15:16:36.225Z,1.60
2019-01-27T15:18:37.061Z,2.97
2019-01-27T15:20:37.884Z,2.13
2019-01-27T15:22:38.736Z,2.37
2019-01-27T15:24:39.853Z,2.90
2019-01-27T15:26:41.103Z,3.93
2019-01-27T15:28:42.341Z,4.47
2019-01-27T15:30:43.295Z,3.03
2019-01-27T15:32:44.122Z,2.67
2019-01-27T15:34:44.957Z,2.13
2019-01-27T15:36:46.088Z,4.23
2019-01-27T15:38:46.928Z,2.53
2019-01-27T15:40:47.961Z,2.10
2019-01-27T15:42:48.821Z,4.17
2019-01-27T15:44:49.665Z,3.03
2019-01-27T15:46:50.513Z,3.03
2019-01-27T15:48:51.807Z,4.37
2019-01-27T15:50:52.929Z,3.37
2019-01-27T15:52:53.811Z,3.10
2019-01-27T15:54:54.715Z,2.77
2019-01-27T15:56:55.548Z,2.83
2019-01-27T15:58:56.400Z,2.47
2019-01-27T16:00:57.236Z,2.47
2019-01-27T16:02:58.159Z,2.17
2019-01-27T16:04:59.009Z,2.10
2019-01-27T16:06:59.861Z,2.00
2019-01-27T16:09:00.693Z,2.20
2019-01-27T16:11:01.532Z,2.40
2019-01-27T16:13:02.462Z,2.37
2019-01-27T16:15:03.317Z,3.07
2019-01-27T16:17:04.149Z,3.27
2019-01-27T16:19:04.996Z,4.30
2019-01-27T16:21:05.848Z,2.90
2019-01-27T16:23:15.116Z,3.13
2019-01-27T16:25:15.972Z,2.70
2019-01-27T16:27:17.180Z,2.60
2019-01-27T16:29:21.477Z,4.37
2019-01-27T16:31:41.692Z,3.13
2019-01-27T16:33:48.028Z,4.33
2019-01-27T16:35:48.894Z,4.80
2019-01-27T16:37:50.192Z,5.83
2019-01-27T16:39:51.329Z,4.60
2019-01-27T16:41:52.184Z,3.70
2019-01-27T16:43:53.298Z,4.17
2019-01-27T16:45:54.127Z,2.77
2019-01-27T16:47:55.076Z,2.50
2019-01-27T16:49:55.923Z,2.97
2019-01-27T16:51:56.770Z,2.37
2019-01-27T16:53:57.721Z,3.60
2019-01-27T16:55:58.916Z,3.50
2019-01-27T16:58:00.081Z,3.63
2019-01-27T17:00:00.912Z,3.00
2019-01-27T17:02:01.773Z,3.07
2019-01-27T17:04:02.604Z,4.27
2019-01-27T17:06:03.436Z,5.03
2019-01-27T17:08:04.372Z,3.30
2019-01-27T17:10:05.235Z,4.07
2019-01-27T17:12:06.072Z,3.23
2019-01-27T17:14:06.933Z,3.57
2019-01-27T17:16:07.760Z,3.37
2019-01-27T17:18:08.617Z,2.93
2019-01-27T17:20:09.469Z,2.43
2019-01-27T17:22:10.304Z,3.40
2019-01-27T17:24:11.156Z,3.73
2019-01-27T17:26:12.104Z,2.73
2019-01-27T17:28:12.943Z,2.10
2019-01-27T17:30:13.798Z,2.63
2019-01-27T17:32:14.628Z,2.23
2019-01-27T17:34:15.480Z,2.10
2019-01-27T17:36:16.312Z,2.03
2019-01-27T17:38:17.445Z,1.80
2019-01-27T17:40:18.633Z,3.27
2019-01-27T17:42:19.474Z,4.63
2019-01-27T17:44:20.300Z,2.57
2019-01-27T17:46:21.520Z,2.43
2019-01-27T17:48:22.356Z,2.67
2019-01-27T17:50:23.180Z,1.80
2019-01-27T17:52:24.045Z,1.87
2019-01-27T17:54:24.883Z,2.87
2019-01-27T17:56:25.728Z,2.27
2019-01-27T17:59:01.648Z,1.80
2019-01-27T18:01:37.212Z,2.07
2019-01-27T18:03:50.435Z,2.00
2019-01-27T18:05:58.437Z,2.00
2019-01-27T18:08:06.760Z,3.13
2019-01-27T18:10:17.737Z,2.97
2019-01-27T18:12:26.241Z,2.87
2019-01-27T18:14:33.530Z,3.23
2019-01-27T18:16:34.391Z,3.43
2019-01-27T18:18:35.220Z,3.13
2019-01-27T18:20:36.048Z,2.50
2019-01-27T18:22:36.896Z,3.17
2019-01-27T18:24:38.035Z,4.57
2019-01-27T18:26:38.917Z,3.47
2019-01-27T18:28:39.790Z,4.10
2019-01-27T18:30:40.662Z,4.03
2019-01-27T18:32:41.496Z,4.47
2019-01-27T18:34:42.355Z,5.23
2019-01-27T18:36:43.180Z,4.37
2019-01-27T18:38:44.034Z,4.37
2019-01-27T18:40:45.101Z,3.53
2019-01-27T18:42:46.255Z,3.87
2019-01-27T18:44:47.382Z,7.07
2019-01-27T18:46:48.237Z,5.13
2019-01-27T18:48:49.068Z,6.80
2019-01-27T18:50:49.910Z,3.87
2019-01-27T18:52:59.652Z,5.03
2019-01-27T18:55:13.320Z,4.27
2019-01-27T18:57:32.300Z,5.13
2019-01-27T18:59:41.850Z,4.03
2019-01-27T19:02:01.184Z,4.93
2019-01-27T19:04:21.684Z,4.00
2019-01-27T19:06:32.040Z,3.23
2019-01-27T19:09:04.905Z,3.40
2019-01-27T19:11:25.405Z,3.43
2019-01-27T19:13:45.596Z,5.23
2019-01-27T19:15:53.827Z,6.53
2019-01-27T19:18:15.432Z,3.53
2019-01-27T19:20:42.117Z,3.83
2019-01-27T19:23:11.488Z,4.07
2019-01-27T19:25:28.180Z,4.47
2019-01-27T19:27:57.607Z,4.57
2019-01-27T19:30:36.662Z,3.93
2019-01-27T19:32:48.384Z,3.77
2019-01-27T19:35:06.428Z,5.27
2019-01-27T19:37:25.667Z,3.40
2019-01-27T19:39:36.272Z,4.40
2019-01-27T19:42:03.057Z,4.90
2019-01-27T19:44:32.469Z,5.63
2019-01-27T19:47:04.976Z,5.27
2019-01-27T19:49:18.609Z,5.13
2019-01-27T19:51:42.014Z,4.23
2019-01-27T19:53:47.615Z,4.17
2019-01-27T19:56:10.896Z,4.70
2019-01-27T19:58:40.483Z,3.40
2019-01-27T20:00:51.646Z,3.50
2019-01-27T20:03:10.204Z,11.60
2019-01-27T20:05:33.724Z,3.33
2019-01-27T20:07:54.208Z,2.70
2019-01-27T20:10:10.257Z,2.70
2019-01-27T20:12:29.457Z,3.73
2019-01-27T20:14:53.083Z,1.83
2019-01-27T20:17:16.340Z,2.10
2019-01-27T20:19:22.301Z,2.80
2019-01-27T20:21:37.696Z,1.93
2019-01-27T20:23:56.959Z,2.30
2019-01-27T20:26:23.680Z,2.53
2019-01-27T20:28:43.170Z,2.10
2019-01-27T20:30:59.031Z,2.87
2019-01-27T20:33:26.912Z,2.20
2019-01-27T20:35:36.645Z,2.60
2019-01-27T20:37:52.325Z,2.60
2019-01-27T20:40:07.801Z,2.40
2019-01-27T20:42:17.862Z,2.33
2019-01-27T20:44:44.244Z,2.53
2019-01-27T20:47:07.632Z,2.40
2019-01-27T20:49:34.041Z,2.20
2019-01-27T20:51:57.292Z,1.90
2019-01-27T20:54:08.336Z,3.13
2019-01-27T20:56:20.016Z,2.40
2019-01-27T20:58:28.624Z,2.43
2019-01-27T21:00:44.193Z,2.47
2019-01-27T21:03:03.081Z,2.30
2019-01-27T21:05:08.712Z,2.30
2019-01-27T21:07:21.001Z,2.90
2019-01-27T21:09:44.520Z,2.40
2019-01-27T21:13:02.420Z,2.70
2019-01-27T21:15:29.039Z,2.30
2019-01-27T21:17:45.740Z,3.90
2019-01-27T21:19:53.252Z,2.40
2019-01-27T21:21:54.125Z,2.00
2019-01-27T21:23:54.965Z,2.57
2019-01-27T21:25:55.834Z,2.20
2019-01-27T21:27:56.748Z,2.10
2019-01-27T21:29:57.593Z,1.80
2019-01-27T21:31:58.538Z,3.13
2019-01-27T21:33:59.371Z,6.42
2019-01-27T21:36:00.220Z,8.13
2019-01-27T21:38:01.056Z,6.90
2019-01-27T21:40:01.969Z,3.58
2019-01-27T21:42:02.797Z,1.50
2019-01-27T21:44:03.664Z,1.70
2019-01-27T21:46:04.496Z,1.70
2019-01-27T21:48:05.333Z,1.73
2019-01-27T21:50:06.200Z,1.90
2019-01-27T21:52:07.049Z,1.70
2019-01-27T21:54:07.973Z,1.67
2019-01-27T21:56:08.817Z,4.17
2019-01-27T21:58:09.940Z,2.00
2019-01-27T22:00:10.784Z,2.70
2019-01-27T22:02:11.738Z,2.30
2019-01-27T22:04:12.563Z,1.73
2019-01-27T22:06:13.425Z,2.83
2019-01-27T22:08:14.277Z,2.70
2019-01-27T22:10:15.435Z,2.63
2019-01-27T22:12:16.284Z,1.87
2019-01-27T22:14:17.118Z,2.17
2019-01-27T22:16:17.968Z,2.13
2019-01-27T22:18:21.681Z,2.20
2019-01-27T22:20:22.538Z,2.83
2019-01-27T22:22:23.377Z,2.20
2019-01-27T22:24:24.228Z,2.10
2019-01-27T22:26:25.076Z,2.83
2019-01-27T22:28:25.928Z,2.30
2019-01-27T22:30:26.752Z,2.17
2019-01-27T22:32:27.619Z,2.10
2019-01-27T22:34:28.826Z,2.40
2019-01-27T22:36:29.680Z,2.10
2019-01-27T22:38:30.792Z,2.40
2019-01-27T22:40:31.925Z,3.17
2019-01-27T22:42:32.789Z,2.33
2019-01-27T22:44:33.612Z,3.50
2019-01-27T22:46:34.444Z,2.50
2019-01-27T22:48:35.397Z,2.90
2019-01-27T22:50:36.242Z,2.87
2019-01-27T22:52:37.453Z,2.73
2019-01-27T22:54:38.574Z,3.30
2019-01-27T22:56:39.703Z,2.60
2019-01-27T22:58:40.572Z,3.30
2019-01-27T23:00:59.772Z,3.23
2019-01-27T23:03:00.944Z,3.23
2019-01-27T23:05:02.396Z,3.23
2019-01-27T23:07:03.642Z,3.27
2019-01-27T23:09:06.387Z,3.20
2019-01-27T23:11:07.249Z,4.33
2019-01-27T23:13:08.073Z,3.27
2019-01-27T23:15:09.245Z,3.27
2019-01-27T23:17:10.364Z,3.30
2019-01-27T23:19:11.200Z,3.57
2019-01-27T23:21:12.361Z,4.20
2019-01-27T23:23:13.184Z,3.23
2019-01-27T23:25:14.320Z,3.07
2019-01-27T23:27:15.152Z,3.57
2019-01-27T23:29:16.285Z,4.40
2019-01-27T23:31:17.420Z,3.10
2019-01-27T23:33:18.260Z,3.40
2019-01-27T23:35:19.105Z,3.70
2019-01-27T23:37:19.937Z,3.13
2019-01-27T23:39:20.780Z,3.53
2019-01-27T23:41:21.640Z,3.40
2019-01-27T23:43:22.468Z,3.80
2019-01-27T23:45:23.564Z,3.67
2019-01-27T23:47:24.418Z,3.50
2019-01-27T23:49:25.256Z,3.40
2019-01-27T23:51:26.096Z,3.93
2019-01-27T23:53:26.952Z,3.40
2019-01-27T23:55:28.057Z,3.30
2019-01-27T23:57:29.176Z,4.30
2019-01-27T23:59:30.032Z,4.00
